sensor_id;sensor_type;location;lat;lon;timestamp;P1;durP1;ratioP1;P2;durP2;ratioP2
18399;SDS011;9326;49.468;11.008;2023-07-20T05:00:40;8.73;;;4.43;;
18399;SDS011;9326;49.468;11.008;2023-07-20T05:03:07;5.23;;;4.53;;
18399;SDS011;9326;49.468;11.008;2023-07-20T05:05:34;9.47;;;4.00;;
18399;SDS011;9326;49.468;11.008;2023-07-20T05:08:02;8.63;;;4.50;;
18399;SDS011;9326;49.468;11.008;2023-07-20T05:10:30;8.83;;;3.93;;
18399;SDS011;9326;49.468;11.008;2023-07-20T05:12:57;9.43;;;4.40;;
18399;SDS011;9326;49.468;11.008;2023-07-20T05:15:24;7.37;;;4.20;;
18399;SDS011;9326;49.468;11.008;2023-07-20T05:17:53;5.63;;;3.80;;
18399;SDS011;9326;49.468;11.008;2023-07-20T05:20:20;7.97;;;3.70;;
18399;SDS011;9326;49.468;11.008;2023-07-20T05:22:47;6.57;;;3.93;;
18399;SDS011;9326;49.468;11.008;2023-07-20T05:25:14;6.73;;;4.03;;
18399;SDS011;9326;49.468;11.008;2023-07-20T05:27:43;10.27;;;6.03;;
18399;SDS011;9326;49.468;11.008;2023-07-20T05:30:10;9.43;;;4.70;;
18399;SDS011;9326;49.468;11.008;2023-07-20T05:32:38;10.33;;;4.23;;
18399;SDS011;9326;49.468;11.008;2023-07-20T05:35:07;6.10;;;4.00;;
18399;SDS011;9326;49.468;11.008;2023-07-20T05:37:36;10.13;;;4.00;;
18399;SDS011;9326;49.468;11.008;2023-07-20T05:40:04;8.43;;;3.60;;
18399;SDS011;9326;49.468;11.008;2023-07-20T05:42:32;9.30;;;3.93;;
18399;SDS011;9326;49.468;11.008;2023-07-20T05:44:59;7.80;;;3.50;;
18399;SDS011;9326;49.468;11.008;2023-07-20T05:47:27;5.53;;;3.33;;
18399;SDS011;9326;49.468;11.008;2023-07-20T05:49:54;4.60;;;3.10;;
18399;SDS011;9326;49.468;11.008;2023-07-20T05:52:22;6.10;;;3.10;;
18399;SDS011;9326;49.468;11.008;2023-07-20T05:54:49;9.53;;;3.17;;
18399;SDS011;9326;49.468;11.008;2023-07-20T05:57:16;7.17;;;2.90;;
18399;SDS011;9326;49.468;11.008;2023-07-20T05:59:43;6.73;;;3.03;;
18399;SDS011;9326;49.468;11.008;2023-07-20T06:02:10;3.77;;;2.60;;
18399;SDS011;9326;49.468;11.008;2023-07-20T06:04:38;4.40;;;2.60;;
18399;SDS011;9326;49.468;11.008;2023-07-20T06:07:05;6.00;;;3.03;;
18399;SDS011;9326;49.468;11.008;2023-07-20T06:09:34;3.77;;;2.80;;
18399;SDS011;9326;49.468;11.008;2023-07-20T06:12:01;6.43;;;2.83;;
18399;SDS011;9326;49.468;11.008;2023-07-20T06:14:29;5.77;;;3.00;;
18399;SDS011;9326;49.468;11.008;2023-07-20T06:16:56;4.73;;;3.23;;
18399;SDS011;9326;49.468;11.008;2023-07-20T06:19:23;8.37;;;3.03;;
18399;SDS011;9326;49.468;11.008;2023-07-20T06:21:50;5.10;;;2.90;;
18399;SDS011;9326;49.468;11.008;2023-07-20T06:24:17;6.80;;;3.37;;
18399;SDS011;9326;49.468;11.008;2023-07-20T06:26:46;6.30;;;3.10;;
18399;SDS011;9326;49.468;11.008;2023-07-20T06:29:13;4.40;;;3.00;;
18399;SDS011;9326;49.468;11.008;2023-07-20T06:31:40;6.23;;;2.90;;
18399;SDS011;9326;49.468;11.008;2023-07-20T06:34:07;5.37;;;2.70;;
18399;SDS011;9326;49.468;11.008;2023-07-20T06:36:34;4.80;;;2.70;;
18399;SDS011;9326;49.468;11.008;2023-07-20T06:39:01;6.10;;;2.90;;
18399;SDS011;9326;49.468;11.008;2023-07-20T06:41:29;8.10;;;3.03;;
18399;SDS011;9326;49.468;11.008;2023-07-20T06:43:57;7.50;;;2.90;;
18399;SDS011;9326;49.468;11.008;2023-07-20T06:46:24;5.00;;;2.90;;
18399;SDS011;9326;49.468;11.008;2023-07-20T06:48:52;6.30;;;2.87;;
18399;SDS011;9326;49.468;11.008;2023-07-20T06:51:19;3.63;;;2.60;;
18399;SDS011;9326;49.468;11.008;2023-07-20T06:53:47;4.97;;;2.40;;
18399;SDS011;9326;49.468;11.008;2023-07-20T06:56:14;5.77;;;2.93;;
18399;SDS011;9326;49.468;11.008;2023-07-20T06:58:41;5.43;;;2.60;;
18399;SDS011;9326;49.468;11.008;2023-07-20T07:01:09;5.07;;;2.70;;
18399;SDS011;9326;49.468;11.008;2023-07-20T07:03:38;4.67;;;2.40;;
18399;SDS011;9326;49.468;11.008;2023-07-20T07:06:05;4.70;;;2.40;;
18399;SDS011;9326;49.468;11.008;2023-07-20T07:08:32;4.73;;;2.50;;
18399;SDS011;9326;49.468;11.008;2023-07-20T07:10:59;3.27;;;2.20;;
18399;SDS011;9326;49.468;11.008;2023-07-20T07:13:26;5.17;;;2.90;;
18399;SDS011;9326;49.468;11.008;2023-07-20T07:15:53;4.30;;;2.13;;
18399;SDS011;9326;49.468;11.008;2023-07-20T07:18:21;4.70;;;2.40;;
18399;SDS011;9326;49.468;11.008;2023-07-20T07:20:52;3.47;;;2.30;;
18399;SDS011;9326;49.468;11.008;2023-07-20T07:23:19;4.93;;;2.30;;
18399;SDS011;9326;49.468;11.008;2023-07-20T07:25:46;4.87;;;2.53;;
18399;SDS011;9326;49.468;11.008;2023-07-20T07:28:14;4.13;;;2.20;;
18399;SDS011;9326;49.468;11.008;2023-07-20T07:30:41;4.63;;;2.30;;
18399;SDS011;9326;49.468;11.008;2023-07-20T07:33:08;3.30;;;2.27;;
18399;SDS011;9326;49.468;11.008;2023-07-20T07:35:37;2.63;;;2.10;;
18399;SDS011;9326;49.468;11.008;2023-07-20T07:38:04;3.30;;;2.27;;
18399;SDS011;9326;49.468;11.008;2023-07-20T07:40:31;2.43;;;2.20;;
18399;SDS011;9326;49.468;11.008;2023-07-20T07:42:58;3.30;;;2.30;;
18399;SDS011;9326;49.468;11.008;2023-07-20T07:45:25;3.13;;;2.20;;
18399;SDS011;9326;49.468;11.008;2023-07-20T07:47:52;4.93;;;2.10;;
18399;SDS011;9326;49.468;11.008;2023-07-20T07:50:19;5.03;;;2.20;;
18399;SDS011;9326;49.468;11.008;2023-07-20T07:52:48;3.57;;;2.10;;
18399;SDS011;9326;49.468;11.008;2023-07-20T07:55:15;2.43;;;1.80;;
18399;SDS011;9326;49.468;11.008;2023-07-20T07:57:43;5.07;;;2.20;;
18399;SDS011;9326;49.468;11.008;2023-07-20T08:00:10;4.70;;;2.40;;
18399;SDS011;9326;49.468;11.008;2023-07-20T08:02:39;3.70;;;2.00;;
18399;SDS011;9326;49.468;11.008;2023-07-20T08:05:06;3.27;;;2.17;;
18399;SDS011;9326;49.468;11.008;2023-07-20T08:07:33;4.00;;;2.00;;
18399;SDS011;9326;49.468;11.008;2023-07-20T08:10:02;2.93;;;1.90;;
18399;SDS011;9326;49.468;11.008;2023-07-20T08:12:29;3.27;;;2.03;;
18399;SDS011;9326;49.468;11.008;2023-07-20T08:14:56;3.20;;;1.90;;
18399;SDS011;9326;49.468;11.008;2023-07-20T08:17:24;3.83;;;2.00;;
18399;SDS011;9326;49.468;11.008;2023-07-20T08:19:51;5.33;;;2.10;;
18399;SDS011;9326;49.468;11.008;2023-07-20T08:22:18;2.50;;;2.00;;
18399;SDS011;9326;49.468;11.008;2023-07-20T08:24:45;3.37;;;1.90;;
18399;SDS011;9326;49.468;11.008;2023-07-20T08:27:13;2.83;;;2.10;;
18399;SDS011;9326;49.468;11.008;2023-07-20T08:29:40;3.93;;;2.00;;
18399;SDS011;9326;49.468;11.008;2023-07-20T08:32:08;4.47;;;2.30;;
18399;SDS011;9326;49.468;11.008;2023-07-20T08:34:35;5.17;;;2.20;;
18399;SDS011;9326;49.468;11.008;2023-07-20T08:37:02;2.70;;;1.90;;
18399;SDS011;9326;49.468;11.008;2023-07-20T08:39:29;2.80;;;1.83;;
18399;SDS011;9326;49.468;11.008;2023-07-20T08:41:56;2.77;;;2.00;;
18399;SDS011;9326;49.468;11.008;2023-07-20T08:44:30;2.17;;;1.70;;
18399;SDS011;9326;49.468;11.008;2023-07-20T08:46:59;2.20;;;1.70;;
18399;SDS011;9326;49.468;11.008;2023-07-20T08:49:28;1.83;;;1.60;;
18399;SDS011;9326;49.468;11.008;2023-07-20T08:51:55;5.03;;;1.87;;
18399;SDS011;9326;49.468;11.008;2023-07-20T08:54:24;1.97;;;1.60;;
18399;SDS011;9326;49.468;11.008;2023-07-20T08:56:51;3.70;;;1.57;;
18399;SDS011;9326;49.468;11.008;2023-07-20T08:59:18;2.47;;;1.93;;
18399;SDS011;9326;49.468;11.008;2023-07-20T09:01:47;3.53;;;1.67;;
18399;SDS011;9326;49.468;11.008;2023-07-20T09:04:15;2.47;;;1.57;;
18399;SDS011;9326;49.468;11.008;2023-07-20T09:06:42;4.03;;;2.00;;
18399;SDS011;9326;49.468;11.008;2023-07-20T09:09:09;3.07;;;2.00;;
18399;SDS011;9326;49.468;11.008;2023-07-20T09:11:36;4.00;;;2.10;;
18399;SDS011;9326;49.468;11.008;2023-07-20T09:14:04;3.13;;;1.53;;
18399;SDS011;9326;49.468;11.008;2023-07-20T09:16:31;2.37;;;1.57;;
18399;SDS011;9326;49.468;11.008;2023-07-20T09:19:00;2.27;;;2.07;;
18399;SDS011;9326;49.468;11.008;2023-07-20T09:21:28;2.50;;;1.43;;
18399;SDS011;9326;49.468;11.008;2023-07-20T09:23:56;4.17;;;1.87;;
18399;SDS011;9326;49.468;11.008;2023-07-20T09:26:24;2.67;;;1.70;;
18399;SDS011;9326;49.468;11.008;2023-07-20T09:28:51;3.53;;;1.30;;
18399;SDS011;9326;49.468;11.008;2023-07-20T09:31:20;2.50;;;1.77;;
18399;SDS011;9326;49.468;11.008;2023-07-20T09:33:47;2.60;;;1.40;;
18399;SDS011;9326;49.468;11.008;2023-07-20T09:36:16;2.80;;;1.50;;
18399;SDS011;9326;49.468;11.008;2023-07-20T09:38:43;2.43;;;1.53;;
18399;SDS011;9326;49.468;11.008;2023-07-20T09:41:12;2.40;;;1.33;;
18399;SDS011;9326;49.468;11.008;2023-07-20T09:43:40;2.20;;;1.30;;
18399;SDS011;9326;49.468;11.008;2023-07-20T09:46:07;3.80;;;1.33;;
18399;SDS011;9326;49.468;11.008;2023-07-20T09:48:34;2.43;;;1.20;;
18399;SDS011;9326;49.468;11.008;2023-07-20T09:51:01;2.53;;;1.50;;
18399;SDS011;9326;49.468;11.008;2023-07-20T09:53:30;1.93;;;1.43;;
18399;SDS011;9326;49.468;11.008;2023-07-20T09:55:59;1.70;;;1.27;;
18399;SDS011;9326;49.468;11.008;2023-07-20T09:58:26;2.73;;;1.10;;
18399;SDS011;9326;49.468;11.008;2023-07-20T10:00:54;1.40;;;1.23;;
18399;SDS011;9326;49.468;11.008;2023-07-20T10:03:26;1.57;;;1.33;;
18399;SDS011;9326;49.468;11.008;2023-07-20T10:05:55;1.67;;;1.30;;
18399;SDS011;9326;49.468;11.008;2023-07-20T10:08:24;1.87;;;1.47;;
18399;SDS011;9326;49.468;11.008;2023-07-20T10:10:53;2.97;;;1.20;;
18399;SDS011;9326;49.468;11.008;2023-07-20T10:13:21;2.40;;;1.23;;
18399;SDS011;9326;49.468;11.008;2023-07-20T10:15:50;1.67;;;1.00;;
18399;SDS011;9326;49.468;11.008;2023-07-20T10:18:17;2.40;;;1.27;;
18399;SDS011;9326;49.468;11.008;2023-07-20T10:20:48;1.67;;;1.10;;
18399;SDS011;9326;49.468;11.008;2023-07-20T10:23:16;1.70;;;1.40;;
18399;SDS011;9326;49.468;11.008;2023-07-20T10:25:44;2.40;;;1.20;;
18399;SDS011;9326;49.468;11.008;2023-07-20T10:28:12;2.00;;;1.00;;
18399;SDS011;9326;49.468;11.008;2023-07-20T10:30:39;1.23;;;1.13;;
18399;SDS011;9326;49.468;11.008;2023-07-20T10:33:07;1.70;;;1.00;;
18399;SDS011;9326;49.468;11.008;2023-07-20T10:35:50;1.80;;;1.10;;
18399;SDS011;9326;49.468;11.008;2023-07-20T10:38:17;1.80;;;1.10;;
18399;SDS011;9326;49.468;11.008;2023-07-20T10:40:48;4.77;;;1.20;;
18399;SDS011;9326;49.468;11.008;2023-07-20T10:43:22;1.30;;;1.20;;
18399;SDS011;9326;49.468;11.008;2023-07-20T10:45:51;2.50;;;1.10;;
18399;SDS011;9326;49.468;11.008;2023-07-20T10:48:19;1.40;;;1.30;;
18399;SDS011;9326;49.468;11.008;2023-07-20T10:53:28;1.00;;;1.00;;
18399;SDS011;9326;49.468;11.008;2023-07-20T10:56:05;1.50;;;1.03;;
18399;SDS011;9326;49.468;11.008;2023-07-20T10:58:34;1.43;;;1.10;;
18399;SDS011;9326;49.468;11.008;2023-07-20T11:01:01;1.73;;;1.23;;
18399;SDS011;9326;49.468;11.008;2023-07-20T11:03:29;1.20;;;1.10;;
18399;SDS011;9326;49.468;11.008;2023-07-20T11:05:56;1.10;;;1.10;;
18399;SDS011;9326;49.468;11.008;2023-07-20T11:08:39;1.67;;;1.20;;
18399;SDS011;9326;49.468;11.008;2023-07-20T11:11:23;2.03;;;1.10;;
18399;SDS011;9326;49.468;11.008;2023-07-20T11:13:54;1.00;;;0.90;;
18399;SDS011;9326;49.468;11.008;2023-07-20T11:16:31;3.50;;;1.10;;
18399;SDS011;9326;49.468;11.008;2023-07-20T11:18:58;2.43;;;1.00;;
18399;SDS011;9326;49.468;11.008;2023-07-20T11:21:26;1.63;;;1.30;;
18399;SDS011;9326;49.468;11.008;2023-07-20T11:23:54;2.50;;;1.10;;
18399;SDS011;9326;49.468;11.008;2023-07-20T11:26:21;2.40;;;1.40;;
18399;SDS011;9326;49.468;11.008;2023-07-20T11:28:49;1.30;;;1.20;;
18399;SDS011;9326;49.468;11.008;2023-07-20T11:31:18;1.73;;;1.10;;
18399;SDS011;9326;49.468;11.008;2023-07-20T11:33:45;2.47;;;1.20;;
18399;SDS011;9326;49.468;11.008;2023-07-20T11:36:13;1.13;;;1.07;;
18399;SDS011;9326;49.468;11.008;2023-07-20T11:38:41;1.23;;;1.10;;
18399;SDS011;9326;49.468;11.008;2023-07-20T11:41:09;1.40;;;1.30;;
18399;SDS011;9326;49.468;11.008;2023-07-20T11:43:36;2.83;;;1.40;;
18399;SDS011;9326;49.468;11.008;2023-07-20T11:46:04;1.17;;;1.07;;
18399;SDS011;9326;49.468;11.008;2023-07-20T11:48:33;2.17;;;1.30;;
18399;SDS011;9326;49.468;11.008;2023-07-20T11:51:00;1.97;;;1.23;;
18399;SDS011;9326;49.468;11.008;2023-07-20T11:53:27;1.37;;;1.00;;
18399;SDS011;9326;49.468;11.008;2023-07-20T11:55:54;1.50;;;1.10;;
18399;SDS011;9326;49.468;11.008;2023-07-20T11:58:22;3.90;;;0.87;;
18399;SDS011;9326;49.468;11.008;2023-07-20T12:00:49;1.07;;;0.80;;
18399;SDS011;9326;49.468;11.008;2023-07-20T12:03:16;1.47;;;1.00;;
18399;SDS011;9326;49.468;11.008;2023-07-20T12:05:46;0.83;;;0.83;;
18399;SDS011;9326;49.468;11.008;2023-07-20T12:08:14;1.67;;;0.90;;
18399;SDS011;9326;49.468;11.008;2023-07-20T12:10:42;1.30;;;1.20;;
18399;SDS011;9326;49.468;11.008;2023-07-20T12:13:09;2.53;;;1.20;;
18399;SDS011;9326;49.468;11.008;2023-07-20T12:15:37;1.07;;;0.97;;
18399;SDS011;9326;49.468;11.008;2023-07-20T12:18:04;0.83;;;0.83;;
18399;SDS011;9326;49.468;11.008;2023-07-20T12:20:32;1.97;;;0.90;;
18399;SDS011;9326;49.468;11.008;2023-07-20T12:23:01;1.20;;;1.10;;
18399;SDS011;9326;49.468;11.008;2023-07-20T12:25:39;1.00;;;0.80;;
18399;SDS011;9326;49.468;11.008;2023-07-20T12:28:08;0.70;;;0.70;;
18399;SDS011;9326;49.468;11.008;2023-07-20T12:30:38;1.03;;;1.03;;
18399;SDS011;9326;49.468;11.008;2023-07-20T12:33:05;2.63;;;1.20;;
18399;SDS011;9326;49.468;11.008;2023-07-20T12:35:33;3.07;;;1.10;;
18399;SDS011;9326;49.468;11.008;2023-07-20T12:38:01;1.30;;;1.00;;
18399;SDS011;9326;49.468;11.008;2023-07-20T12:40:28;1.73;;;1.00;;
18399;SDS011;9326;49.468;11.008;2023-07-20T12:42:56;1.07;;;1.00;;
18399;SDS011;9326;49.468;11.008;2023-07-20T12:45:23;1.63;;;1.30;;
18399;SDS011;9326;49.468;11.008;2023-07-20T12:47:50;1.20;;;1.10;;
18399;SDS011;9326;49.468;11.008;2023-07-20T12:50:17;1.70;;;1.17;;
18399;SDS011;9326;49.468;11.008;2023-07-20T12:52:44;1.40;;;1.07;;
18399;SDS011;9326;49.468;11.008;2023-07-20T12:55:13;1.77;;;1.10;;
18399;SDS011;9326;49.468;11.008;2023-07-20T12:57:40;1.47;;;1.30;;
18399;SDS011;9326;49.468;11.008;2023-07-20T13:00:09;1.20;;;1.07;;
18399;SDS011;9326;49.468;11.008;2023-07-20T13:02:37;1.97;;;1.33;;
18399;SDS011;9326;49.468;11.008;2023-07-20T13:05:04;4.20;;;1.40;;
18399;SDS011;9326;49.468;11.008;2023-07-20T13:07:32;3.43;;;1.80;;
18399;SDS011;9326;49.468;11.008;2023-07-20T13:10:00;2.47;;;1.17;;
18399;SDS011;9326;49.468;11.008;2023-07-20T13:12:28;1.40;;;1.30;;
18399;SDS011;9326;49.468;11.008;2023-07-20T13:14:56;2.83;;;1.03;;
18399;SDS011;9326;49.468;11.008;2023-07-20T13:17:25;1.10;;;1.00;;
18399;SDS011;9326;49.468;11.008;2023-07-20T13:19:52;2.43;;;1.00;;
18399;SDS011;9326;49.468;11.008;2023-07-20T13:22:20;2.03;;;1.17;;
18399;SDS011;9326;49.468;11.008;2023-07-20T13:24:48;2.20;;;1.30;;
18399;SDS011;9326;49.468;11.008;2023-07-20T13:27:15;3.27;;;1.30;;
18399;SDS011;9326;49.468;11.008;2023-07-20T13:29:44;2.07;;;1.20;;
18399;SDS011;9326;49.468;11.008;2023-07-20T13:32:12;1.10;;;1.00;;
18399;SDS011;9326;49.468;11.008;2023-07-20T13:34:40;1.77;;;1.20;;
18399;SDS011;9326;49.468;11.008;2023-07-20T13:37:07;1.10;;;1.00;;
18399;SDS011;9326;49.468;11.008;2023-07-20T13:39:35;1.27;;;1.10;;
18399;SDS011;9326;49.468;11.008;2023-07-20T13:42:02;1.90;;;1.00;;
18399;SDS011;9326;49.468;11.008;2023-07-20T13:44:30;2.03;;;1.13;;
18399;SDS011;9326;49.468;11.008;2023-07-20T13:46:59;1.50;;;1.20;;
18399;SDS011;9326;49.468;11.008;2023-07-20T13:49:26;1.77;;;1.17;;
18399;SDS011;9326;49.468;11.008;2023-07-20T13:51:53;1.20;;;1.10;;
18399;SDS011;9326;49.468;11.008;2023-07-20T13:54:21;1.27;;;1.17;;
18399;SDS011;9326;49.468;11.008;2023-07-20T13:56:48;1.73;;;1.10;;
18399;SDS011;9326;49.468;11.008;2023-07-20T13:59:15;1.33;;;1.20;;
18399;SDS011;9326;49.468;11.008;2023-07-20T14:01:42;1.00;;;1.00;;
18399;SDS011;9326;49.468;11.008;2023-07-20T14:04:10;1.50;;;1.30;;
18399;SDS011;9326;49.468;11.008;2023-07-20T14:06:37;1.30;;;1.00;;
18399;SDS011;9326;49.468;11.008;2023-07-20T14:09:04;3.63;;;1.40;;
18399;SDS011;9326;49.468;11.008;2023-07-20T14:11:32;1.07;;;0.80;;
18399;SDS011;9326;49.468;11.008;2023-07-20T14:13:59;1.77;;;1.00;;
18399;SDS011;9326;49.468;11.008;2023-07-20T14:16:26;1.47;;;1.20;;
18399;SDS011;9326;49.468;11.008;2023-07-20T14:18:53;3.07;;;1.30;;
18399;SDS011;9326;49.468;11.008;2023-07-20T14:21:22;1.13;;;1.00;;
18399;SDS011;9326;49.468;11.008;2023-07-20T14:23:50;1.67;;;1.20;;
18399;SDS011;9326;49.468;11.008;2023-07-20T14:26:17;1.90;;;1.30;;
18399;SDS011;9326;49.468;11.008;2023-07-20T14:28:45;1.60;;;1.00;;
18399;SDS011;9326;49.468;11.008;2023-07-20T14:31:12;2.60;;;1.80;;
18399;SDS011;9326;49.468;11.008;2023-07-20T14:33:39;2.63;;;1.40;;
18399;SDS011;9326;49.468;11.008;2023-07-20T14:36:06;1.20;;;1.10;;
18399;SDS011;9326;49.468;11.008;2023-07-20T14:38:34;1.80;;;1.20;;
18399;SDS011;9326;49.468;11.008;2023-07-20T14:41:02;1.60;;;1.10;;
18399;SDS011;9326;49.468;11.008;2023-07-20T14:43:36;2.97;;;1.43;;
18399;SDS011;9326;49.468;11.008;2023-07-20T14:46:04;1.77;;;1.30;;
18399;SDS011;9326;49.468;11.008;2023-07-20T14:48:31;1.73;;;1.43;;
18399;SDS011;9326;49.468;11.008;2023-07-20T14:50:58;1.40;;;1.00;;
18399;SDS011;9326;49.468;11.008;2023-07-20T14:53:25;1.70;;;1.40;;
18399;SDS011;9326;49.468;11.008;2023-07-20T14:55:59;2.33;;;1.10;;
18399;SDS011;9326;49.468;11.008;2023-07-20T14:58:26;1.40;;;1.30;;
18399;SDS011;9326;49.468;11.008;2023-07-20T15:00:53;1.10;;;1.00;;
18399;SDS011;9326;49.468;11.008;2023-07-20T15:03:20;1.67;;;1.10;;
18399;SDS011;9326;49.468;11.008;2023-07-20T15:05:47;1.57;;;1.23;;
18399;SDS011;9326;49.468;11.008;2023-07-20T15:08:15;4.17;;;1.27;;
18399;SDS011;9326;49.468;11.008;2023-07-20T15:10:44;2.00;;;1.30;;
18399;SDS011;9326;49.468;11.008;2023-07-20T15:13:12;1.20;;;1.10;;
18399;SDS011;9326;49.468;11.008;2023-07-20T15:15:39;1.43;;;1.20;;
18399;SDS011;9326;49.468;11.008;2023-07-20T15:18:06;1.77;;;1.17;;
18399;SDS011;9326;49.468;11.008;2023-07-20T15:20:33;1.73;;;1.40;;
18399;SDS011;9326;49.468;11.008;2023-07-20T15:23:00;2.37;;;1.30;;
18399;SDS011;9326;49.468;11.008;2023-07-20T15:25:28;1.10;;;1.00;;
18399;SDS011;9326;49.468;11.008;2023-07-20T15:27:55;0.90;;;0.90;;
18399;SDS011;9326;49.468;11.008;2023-07-20T15:30:23;1.27;;;1.00;;
18399;SDS011;9326;49.468;11.008;2023-07-20T15:32:50;1.97;;;1.20;;
18399;SDS011;9326;49.468;11.008;2023-07-20T15:35:17;1.63;;;1.30;;
18399;SDS011;9326;49.468;11.008;2023-07-20T15:37:44;2.70;;;1.20;;
18399;SDS011;9326;49.468;11.008;2023-07-20T15:40:12;1.20;;;1.10;;
18399;SDS011;9326;49.468;11.008;2023-07-20T15:42:39;1.93;;;1.10;;
18399;SDS011;9326;49.468;11.008;2023-07-20T15:45:06;1.30;;;1.20;;
18399;SDS011;9326;49.468;11.008;2023-07-20T15:47:35;1.87;;;1.40;;
18399;SDS011;9326;49.468;11.008;2023-07-20T15:50:02;1.33;;;1.23;;
18399;SDS011;9326;49.468;11.008;2023-07-20T15:52:32;1.40;;;1.20;;
18399;SDS011;9326;49.468;11.008;2023-07-20T15:54:59;1.33;;;1.03;;
18399;SDS011;9326;49.468;11.008;2023-07-20T15:57:27;1.20;;;1.10;;
18399;SDS011;9326;49.468;11.008;2023-07-20T15:59:54;2.50;;;1.30;;
18399;SDS011;9326;49.468;11.008;2023-07-20T16:02:22;1.47;;;1.20;;
18399;SDS011;9326;49.468;11.008;2023-07-20T16:04:50;1.50;;;1.17;;
18399;SDS011;9326;49.468;11.008;2023-07-20T16:07:17;2.07;;;1.17;;
18399;SDS011;9326;49.468;11.008;2023-07-20T16:09:44;1.70;;;1.00;;
18399;SDS011;9326;49.468;11.008;2023-07-20T16:12:11;2.83;;;1.30;;
18399;SDS011;9326;49.468;11.008;2023-07-20T16:14:39;2.13;;;1.00;;
18399;SDS011;9326;49.468;11.008;2023-07-20T16:17:06;1.20;;;1.10;;
18399;SDS011;9326;49.468;11.008;2023-07-20T16:19:33;1.40;;;1.23;;
18399;SDS011;9326;49.468;11.008;2023-07-20T16:22:01;1.37;;;1.13;;
18399;SDS011;9326;49.468;11.008;2023-07-20T16:24:30;1.67;;;1.10;;
18399;SDS011;9326;49.468;11.008;2023-07-20T16:26:57;1.90;;;1.50;;
18399;SDS011;9326;49.468;11.008;2023-07-20T16:29:24;1.83;;;1.10;;
18399;SDS011;9326;49.468;11.008;2023-07-20T16:31:51;1.40;;;1.30;;
18399;SDS011;9326;49.468;11.008;2023-07-20T16:34:20;1.60;;;1.20;;
18399;SDS011;9326;49.468;11.008;2023-07-20T16:36:47;1.30;;;1.20;;
18399;SDS011;9326;49.468;11.008;2023-07-20T16:39:15;1.27;;;1.10;;
18399;SDS011;9326;49.468;11.008;2023-07-20T16:41:42;1.67;;;1.30;;
18399;SDS011;9326;49.468;11.008;2023-07-20T16:44:09;1.53;;;1.23;;
18399;SDS011;9326;49.468;11.008;2023-07-20T16:46:37;1.97;;;1.27;;
18399;SDS011;9326;49.468;11.008;2023-07-20T16:49:04;1.43;;;0.97;;
18399;SDS011;9326;49.468;11.008;2023-07-20T16:51:32;1.40;;;1.30;;
18399;SDS011;9326;49.468;11.008;2023-07-20T16:53:59;2.20;;;1.30;;
18399;SDS011;9326;49.468;11.008;2023-07-20T16:56:28;2.97;;;1.23;;
18399;SDS011;9326;49.468;11.008;2023-07-20T16:58:55;3.10;;;1.20;;
18399;SDS011;9326;49.468;11.008;2023-07-20T17:01:22;1.90;;;1.40;;
18399;SDS011;9326;49.468;11.008;2023-07-20T17:03:49;2.10;;;1.70;;
18399;SDS011;9326;49.468;11.008;2023-07-20T17:06:16;1.87;;;1.20;;
18399;SDS011;9326;49.468;11.008;2023-07-20T17:08:43;2.03;;;1.10;;
18399;SDS011;9326;49.468;11.008;2023-07-20T17:11:10;1.77;;;1.20;;
18399;SDS011;9326;49.468;11.008;2023-07-20T17:13:39;1.50;;;1.40;;
18399;SDS011;9326;49.468;11.008;2023-07-20T17:16:06;2.20;;;1.30;;
18399;SDS011;9326;49.468;11.008;2023-07-20T17:18:33;1.30;;;1.20;;
18399;SDS011;9326;49.468;11.008;2023-07-20T17:21:00;1.73;;;1.20;;
18399;SDS011;9326;49.468;11.008;2023-07-20T17:23:27;1.63;;;1.00;;
18399;SDS011;9326;49.468;11.008;2023-07-20T17:25:55;1.50;;;1.10;;
18399;SDS011;9326;49.468;11.008;2023-07-20T17:28:22;1.10;;;1.03;;
18399;SDS011;9326;49.468;11.008;2023-07-20T17:30:57;2.13;;;1.27;;
18399;SDS011;9326;49.468;11.008;2023-07-20T17:33:24;2.33;;;1.00;;
18399;SDS011;9326;49.468;11.008;2023-07-20T17:35:51;1.60;;;1.10;;
18399;SDS011;9326;49.468;11.008;2023-07-20T17:38:19;2.23;;;1.30;;
18399;SDS011;9326;49.468;11.008;2023-07-20T17:40:46;2.20;;;1.30;;
18399;SDS011;9326;49.468;11.008;2023-07-20T17:43:13;1.77;;;1.20;;
18399;SDS011;9326;49.468;11.008;2023-07-20T17:45:40;1.27;;;1.10;;
18399;SDS011;9326;49.468;11.008;2023-07-20T17:48:08;1.53;;;1.00;;
18399;SDS011;9326;49.468;11.008;2023-07-20T17:50:35;1.97;;;1.17;;
18399;SDS011;9326;49.468;11.008;2023-07-20T17:53:03;1.60;;;1.40;;
18399;SDS011;9326;49.468;11.008;2023-07-20T17:55:30;3.63;;;1.27;;
18399;SDS011;9326;49.468;11.008;2023-07-20T17:57:57;2.63;;;1.20;;
18399;SDS011;9326;49.468;11.008;2023-07-20T18:00:24;2.10;;;1.30;;
18399;SDS011;9326;49.468;11.008;2023-07-20T18:02:51;1.70;;;1.30;;
18399;SDS011;9326;49.468;11.008;2023-07-20T18:05:20;1.77;;;1.07;;
18399;SDS011;9326;49.468;11.008;2023-07-20T18:07:47;1.57;;;1.30;;
18399;SDS011;9326;49.468;11.008;2023-07-20T18:10:14;1.67;;;1.20;;
18399;SDS011;9326;49.468;11.008;2023-07-20T18:12:41;2.30;;;1.30;;
18399;SDS011;9326;49.468;11.008;2023-07-20T18:15:08;2.80;;;1.10;;
18399;SDS011;9326;49.468;11.008;2023-07-20T18:17:35;1.20;;;1.10;;
18399;SDS011;9326;49.468;11.008;2023-07-20T18:20:03;1.20;;;1.10;;
18399;SDS011;9326;49.468;11.008;2023-07-20T18:22:32;1.80;;;1.60;;
18399;SDS011;9326;49.468;11.008;2023-07-20T18:24:59;1.77;;;1.30;;
18399;SDS011;9326;49.468;11.008;2023-07-20T18:27:27;2.00;;;1.40;;
18399;SDS011;9326;49.468;11.008;2023-07-20T18:29:54;1.50;;;1.40;;
18399;SDS011;9326;49.468;11.008;2023-07-20T18:32:21;1.20;;;1.10;;
18399;SDS011;9326;49.468;11.008;2023-07-20T18:34:48;1.93;;;1.37;;
18399;SDS011;9326;49.468;11.008;2023-07-20T18:37:16;1.33;;;1.23;;
18399;SDS011;9326;49.468;11.008;2023-07-20T18:39:46;1.57;;;1.40;;
18399;SDS011;9326;49.468;11.008;2023-07-20T18:42:14;1.80;;;1.20;;
18399;SDS011;9326;49.468;11.008;2023-07-20T18:44:42;1.57;;;1.20;;
18399;SDS011;9326;49.468;11.008;2023-07-20T18:47:09;2.10;;;1.40;;
18399;SDS011;9326;49.468;11.008;2023-07-20T18:49:36;1.50;;;1.10;;
18399;SDS011;9326;49.468;11.008;2023-07-20T18:52:04;1.27;;;1.13;;
18399;SDS011;9326;49.468;11.008;2023-07-20T18:54:31;2.23;;;1.00;;
18399;SDS011;9326;49.468;11.008;2023-07-20T18:57:00;1.97;;;1.13;;
18399;SDS011;9326;49.468;11.008;2023-07-20T18:59:27;2.63;;;1.20;;
18399;SDS011;9326;49.468;11.008;2023-07-20T19:01:54;1.60;;;1.20;;
18399;SDS011;9326;49.468;11.008;2023-07-20T19:04:22;2.13;;;1.20;;
18399;SDS011;9326;49.468;11.008;2023-07-20T19:06:49;2.07;;;1.30;;
18399;SDS011;9326;49.468;11.008;2023-07-20T19:09:17;2.63;;;1.20;;
18399;SDS011;9326;49.468;11.008;2023-07-20T19:11:44;1.30;;;1.10;;
18399;SDS011;9326;49.468;11.008;2023-07-20T19:14:12;3.83;;;1.30;;
18399;SDS011;9326;49.468;11.008;2023-07-20T19:16:40;1.30;;;1.20;;
18399;SDS011;9326;49.468;11.008;2023-07-20T19:19:07;3.03;;;1.13;;
18399;SDS011;9326;49.468;11.008;2023-07-20T19:21:34;2.00;;;1.27;;
18399;SDS011;9326;49.468;11.008;2023-07-20T19:24:01;2.80;;;1.30;;
18399;SDS011;9326;49.468;11.008;2023-07-20T19:26:28;1.50;;;1.40;;
18399;SDS011;9326;49.468;11.008;2023-07-20T19:28:55;3.53;;;1.67;;
18399;SDS011;9326;49.468;11.008;2023-07-20T19:31:24;2.07;;;1.40;;
18399;SDS011;9326;49.468;11.008;2023-07-20T19:33:51;2.33;;;1.40;;
18399;SDS011;9326;49.468;11.008;2023-07-20T19:36:18;2.97;;;1.40;;
18399;SDS011;9326;49.468;11.008;2023-07-20T19:38:46;1.53;;;1.20;;
18399;SDS011;9326;49.468;11.008;2023-07-20T19:41:13;2.17;;;1.40;;
18399;SDS011;9326;49.468;11.008;2023-07-20T19:43:40;4.53;;;1.30;;
18399;SDS011;9326;49.468;11.008;2023-07-20T19:46:08;1.80;;;1.40;;
18399;SDS011;9326;49.468;11.008;2023-07-20T19:48:36;1.90;;;1.50;;
18399;SDS011;9326;49.468;11.008;2023-07-20T19:51:03;1.87;;;1.50;;
18399;SDS011;9326;49.468;11.008;2023-07-20T19:53:31;2.27;;;1.47;;